Time;durP1;ratioP1;P1;durP2;ratioP2;P2;SDS_P1;SDS_P2;PMS_P1;PMS_P2;Temp;Humidity;BMP_temperature;BMP_pressure;BME280_temperature;BME280_humidity;BME280_pressure;Samples;Min_cycle;Max_cycle;Signal;HPM_P1;HPM_P2
2023/04/02 00:00:25;;;;;;;;;9.75;8.75;;;;;20.24;41.37;100796.03;5059818;28;45265;-42
2023/04/02 00:02:53;;;;;;;;;12.50;10.25;;;;;20.24;40.90;100798.66;5065278;28;45684;-42
2023/04/02 00:05:29;;;;;;;;;10.75;8.50;;;;;20.24;41.23;100804.81;5063637;28;45280;-41
2023/04/02 00:07:57;;;;;;;;;10.50;10.50;;;;;20.23;41.21;100807.50;5058008;28;45901;-42
2023/04/02 00:10:38;;;;;;;;;12.00;7.50;;;;;20.22;41.17;100806.66;5037929;28;45394;-41
2023/04/02 00:13:10;;;;;;;;;7.00;7.00;;;;;20.22;41.33;100806.66;5056894;28;45415;-40
2023/04/02 00:15:38;;;;;;;;;9.00;8.00;;;;;20.22;41.08;100811.09;5056309;28;47365;-41
2023/04/02 00:18:04;;;;;;;;;13.00;8.50;;;;;20.21;40.91;100809.38;5056525;28;45867;-40
2023/04/02 00:20:34;;;;;;;;;12.00;8.75;;;;;20.21;40.82;100804.13;5056686;28;45435;-41
2023/04/02 00:23:01;;;;;;;;;8.25;8.00;;;;;20.21;40.97;100807.59;5056595;28;45439;-42
2023/04/02 00:25:41;;;;;;;;;11.00;9.00;;;;;20.20;40.94;100808.53;5056632;28;46429;-41
2023/04/02 00:28:12;;;;;;;;;8.00;6.00;;;;;20.20;41.09;100818.22;5058972;28;45737;-41
2023/04/02 00:30:45;;;;;;;;;8.75;8.00;;;;;20.19;41.14;100819.16;5057485;28;45395;-42
2023/04/02 00:33:16;;;;;;;;;8.75;8.25;;;;;20.20;40.61;100818.22;5057110;28;45456;-42
2023/04/02 00:35:41;;;;;;;;;13.75;8.50;;;;;20.19;41.14;100822.59;5056620;28;46187;-41
2023/04/02 00:38:32;;;;;;;;;7.00;7.00;;;;;20.18;40.54;100825.34;5063880;28;45279;-40
2023/04/02 00:41:01;;;;;;;;;11.00;8.00;;;;;20.19;40.49;100827.88;5063331;28;45387;-41
2023/04/02 00:43:31;;;;;;;;;5.75;5.00;;;;;20.19;40.59;100825.25;5056806;28;45587;-42
2023/04/02 00:46:00;;;;;;;;;4.75;4.75;;;;;20.18;40.52;100822.69;5056630;28;47669;-42
2023/04/02 00:48:31;;;;;;;;;8.25;6.75;;;;;20.19;40.90;100832.31;5056573;28;45859;-42
2023/04/02 00:51:07;;;;;;;;;6.25;5.50;;;;;20.19;40.38;100837.56;5057629;28;45445;-42
2023/04/02 00:53:33;;;;;;;;;6.75;5.75;;;;;20.18;40.94;100825.34;5057990;28;45426;-41
2023/04/02 00:56:00;;;;;;;;;7.25;6.25;;;;;20.19;40.82;100832.31;5056409;28;46592;-40
2023/04/02 00:58:32;;;;;;;;;5.00;5.00;;;;;20.19;40.80;100829.66;5056086;28;45284;-42
2023/04/02 01:00:59;;;;;;;;;6.00;6.00;;;;;20.18;40.80;100841.97;5056483;28;45382;-41
2023/04/02 01:03:36;;;;;;;;;6.00;6.00;;;;;20.18;40.39;100830.59;5056142;28;45239;-39
2023/04/02 01:06:17;;;;;;;;;6.00;4.75;;;;;20.18;40.76;100841.97;5055920;28;46459;-40
2023/04/02 01:08:49;;;;;;;;;7.75;6.00;;;;;20.17;40.82;100849.94;5055980;28;45430;-42
2023/04/02 01:11:43;;;;;;;;;5.75;4.75;;;;;20.16;40.51;100843.84;5055937;28;45337;-43
2023/04/02 01:14:36;;;;;;;;;5.00;5.00;;;;;20.17;40.68;100849.94;5058455;28;45576;-41
2023/04/02 01:17:14;;;;;;;;;8.00;4.50;;;;;20.17;40.66;100847.31;5061302;28;46152;-42
2023/04/02 01:19:51;;;;;;;;;7.00;5.25;;;;;20.16;40.60;100849.13;5067760;28;45326;-41
2023/04/02 01:22:29;;;;;;;;;5.00;4.00;;;;;20.12;40.39;100850.19;5061926;28;45402;-44
2023/04/02 01:24:57;;;;;;;;;6.00;6.00;;;;;20.16;40.81;100857.00;5059485;28;45595;-41
2023/04/02 01:27:33;;;;;;;;;6.00;6.00;;;;;20.16;40.64;100856.13;5059221;28;46493;-41
2023/04/02 01:30:02;;;;;;;;;4.50;4.50;;;;;20.14;40.22;100853.59;5059493;28;45851;-41
2023/04/02 01:32:29;;;;;;;;;4.75;4.00;;;;;20.16;40.29;100869.31;5059212;28;45248;-40
2023/04/02 01:34:55;;;;;;;;;3.00;2.00;;;;;20.15;40.67;100862.34;5059402;28;45336;-40
2023/04/02 01:37:56;;;;;;;;;5.50;4.00;;;;;20.15;40.54;100867.59;5062877;28;46279;-41
2023/04/02 01:40:36;;;;;;;;;4.00;3.00;;;;;20.14;40.54;100871.16;5048976;28;45513;-41
2023/04/02 01:43:40;;;;;;;;;4.25;3.00;;;;;20.15;40.18;100870.22;5060014;28;45371;-41
2023/04/02 01:46:30;;;;;;;;;4.25;4.25;;;;;20.13;40.56;100872.09;5059470;28;45277;-39
2023/04/02 01:48:58;;;;;;;;;3.25;3.25;;;;;20.13;40.36;100874.72;5059154;28;46204;-41
2023/04/02 01:51:35;;;;;;;;;3.00;3.00;;;;;20.13;40.31;100874.72;5062893;28;45311;-39
2023/04/02 01:54:02;;;;;;;;;4.00;4.00;;;;;20.13;40.65;100874.72;5065660;28;44715;-41
2023/04/02 01:56:29;;;;;;;;;4.50;4.00;;;;;20.14;40.61;100884.31;5061398;28;45515;-40
2023/04/02 01:58:56;;;;;;;;;4.00;3.00;;;;;20.13;40.09;100878.22;5064819;28;45791;-40
2023/04/02 02:01:27;;;;;;;;;5.00;3.00;;;;;20.13;40.17;100870.31;5062458;28;45442;-39
2023/04/02 02:03:52;;;;;;;;;4.00;2.50;;;;;20.11;40.09;100882.69;5058926;28;45193;-41
2023/04/02 02:06:18;;;;;;;;;2.00;2.00;;;;;20.13;40.45;100880.84;5059524;28;45639;-41
2023/04/02 02:09:04;;;;;;;;;4.25;3.00;;;;;20.14;40.66;100886.94;5061596;28;46925;-40
2023/04/02 02:11:32;;;;;;;;;3.00;3.00;;;;;20.13;40.04;100890.50;5068496;28;46044;-40
2023/04/02 02:14:05;;;;;;;;;4.00;2.00;;;;;20.12;40.06;100886.19;5068557;28;45422;-40
2023/04/02 02:16:40;;;;;;;;;2.00;2.00;;;;;20.11;40.47;100884.50;5060066;28;45559;-41
2023/04/02 02:19:07;;;;;;;;;3.25;2.00;;;;;20.11;40.56;100887.97;5059382;28;46386;-39
2023/04/02 02:21:46;;;;;;;;;2.50;2.50;;;;;20.11;40.34;100885.34;5064194;28;45375;-39
2023/04/02 02:24:32;;;;;;;;;3.00;2.00;;;;;20.11;40.46;100897.66;5070304;28;45291;-41
2023/04/02 02:27:15;;;;;;;;;2.25;2.25;;;;;20.10;40.03;100894.16;5061073;28;45400;-44
2023/04/02 02:29:42;;;;;;;;;2.00;2.00;;;;;20.10;40.26;100902.03;5064089;28;46733;-39
2023/04/02 02:32:11;;;;;;;;;4.25;2.25;;;;;20.11;40.59;100905.53;5066352;28;45331;-40
2023/04/02 02:34:44;;;;;;;;;3.00;3.00;;;;;20.11;39.98;100908.19;5060357;28;45307;-40
2023/04/02 02:37:23;;;;;;;;;2.75;2.75;;;;;20.11;40.57;100908.19;5067006;28;45323;-42
2023/04/02 02:39:53;;;;;;;;;3.00;2.00;;;;;20.11;40.44;100910.81;5075481;28;45409;-43
2023/04/02 02:42:35;;;;;;;;;2.75;2.75;;;;;20.11;40.09;100921.34;5076515;28;45466;-40
2023/04/02 02:45:05;;;;;;;;;2.00;2.00;;;;;20.10;39.94;100927.53;5066573;28;45281;-39
2023/04/02 02:47:35;;;;;;;;;3.75;2.00;;;;;20.10;40.09;100936.25;5063825;28;45367;-39
2023/04/02 02:50:10;;;;;;;;;3.00;3.00;;;;;20.11;40.07;100937.13;5070481;28;46135;-40
2023/04/02 02:52:37;;;;;;;;;2.00;2.00;;;;;20.11;39.90;100934.50;5074375;28;45269;-39
2023/04/02 02:55:08;;;;;;;;;1.75;1.75;;;;;20.10;40.12;100932.78;5078605;28;45229;-39
2023/04/02 02:57:46;;;;;;;;;2.00;2.00;;;;;20.10;40.21;100938.88;5075720;28;44739;-39
2023/04/02 03:00:14;;;;;;;;;4.00;2.75;;;;;20.07;40.05;100929.38;5056736;28;45199;-40
2023/04/02 03:02:41;;;;;;;;;1.00;1.00;;;;;20.10;40.14;100945.94;5072329;28;45084;-41
2023/04/02 03:05:08;;;;;;;;;2.00;1.00;;;;;20.08;40.12;100941.59;5074492;28;44675;-41
2023/04/02 03:07:36;;;;;;;;;1.00;1.00;;;;;20.10;40.46;100948.56;5074778;28;45294;-40
2023/04/02 03:10:19;;;;;;;;;1.75;1.50;;;;;20.09;40.24;100952.97;5073116;28;45281;-43
2023/04/02 03:13:08;;;;;;;;;1.25;1.25;;;;;20.09;40.35;100952.97;5072508;28;45176;-40
2023/04/02 03:15:52;;;;;;;;;1.00;1.00;;;;;20.08;40.07;100946.88;5071952;28;45371;-42
2023/04/02 03:18:24;;;;;;;;;1.00;1.00;;;;;20.10;40.33;100945.94;5071858;28;45354;-41
2023/04/02 03:21:23;;;;;;;;;2.00;1.00;;;;;20.08;40.30;100952.13;5075469;28;46095;-48
2023/04/02 03:24:29;;;;;;;;;1.25;1.00;;;;;20.07;40.34;100954.81;5070152;28;45466;-44
2023/04/02 03:27:01;;;;;;;;;2.00;2.00;;;;;20.08;40.55;100965.28;5029347;28;45481;-43
2023/04/02 03:29:30;;;;;;;;;2.00;1.75;;;;;20.06;40.50;100972.41;5061110;28;45336;-42
2023/04/02 03:32:02;;;;;;;;;1.00;1.00;;;;;20.07;40.31;100966.22;5079212;28;46615;-42
2023/04/02 03:34:34;;;;;;;;;1.75;1.00;;;;;20.07;40.26;100982.00;5058628;28;45220;-42
2023/04/02 03:37:09;;;;;;;;;1.00;1.00;;;;;20.08;40.33;100977.56;5062228;28;45236;-44
2023/04/02 03:39:51;;;;;;;;;0.00;0.00;;;;;20.07;40.21;100987.25;5068255;28;45245;-41
2023/04/02 03:42:24;;;;;;;;;1.00;1.00;;;;;20.07;40.19;100982.00;5068529;28;46873;-42
2023/04/02 03:45:05;;;;;;;;;1.50;0.25;;;;;20.07;40.58;100991.66;5075580;28;45846;-43
2023/04/02 03:48:10;;;;;;;;;1.00;0.75;;;;;20.07;40.27;100987.25;5065652;28;45392;-41
2023/04/02 03:50:39;;;;;;;;;0.50;0.50;;;;;20.07;40.48;100989.03;4997813;28;45432;-43
2023/04/02 03:53:05;;;;;;;;;0.75;0.75;;;;;20.07;40.53;100987.25;5061659;28;46299;-41
2023/04/02 03:55:36;;;;;;;;;1.00;1.00;;;;;20.07;40.53;100991.66;5063440;28;45159;-41
2023/04/02 03:58:06;;;;;;;;;1.00;0.25;;;;;20.06;40.25;101006.59;5064597;28;45168;-41
2023/04/02 04:00:40;;;;;;;;;1.00;1.00;;;;;20.06;40.34;101006.59;5063721;28;45367;-41
2023/04/02 04:03:12;;;;;;;;;0.00;0.00;;;;;20.06;40.47;101000.50;5068521;28;46853;-43
2023/04/02 04:05:47;;;;;;;;;0.75;0.75;;;;;20.06;40.35;101005.78;5065360;28;47569;-41
2023/04/02 04:08:20;;;;;;;;;1.00;1.00;;;;;20.06;40.45;101014.50;5065217;28;45355;-40
2023/04/02 04:10:52;;;;;;;;;0.25;0.25;;;;;20.07;40.59;101012.72;5047383;28;45486;-42
2023/04/02 04:13:24;;;;;;;;;0.00;0.00;;;;;20.05;40.05;101012.78;5064325;28;47362;-42
2023/04/02 04:15:59;;;;;;;;;1.00;1.00;;;;;20.05;40.83;101017.22;5064789;28;45315;-44
2023/04/02 04:18:50;;;;;;;;;1.00;0.25;;;;;20.05;40.60;101020.69;5065298;28;45394;-42
2023/04/02 04:21:37;;;;;;;;;3.00;0.00;;;;;20.05;40.13;101025.13;5072966;28;45251;-41
2023/04/02 04:24:15;;;;;;;;;2.00;0.00;;;;;20.04;40.26;101029.50;5071864;28;45380;-40
2023/04/02 04:26:48;;;;;;;;;0.50;0.50;;;;;20.03;40.54;101030.44;5065370;28;45407;-41
2023/04/02 04:29:16;;;;;;;;;1.00;0.25;;;;;20.05;40.25;101036.47;5065251;28;45312;-40
2023/04/02 04:31:54;;;;;;;;;1.00;1.00;;;;;20.04;40.62;101039.19;5064491;28;45327;-43
2023/04/02 04:34:28;;;;;;;;;1.00;1.00;;;;;20.04;40.17;101040.03;5064954;28;46279;-41
2023/04/02 04:37:06;;;;;;;;;2.00;1.75;;;;;20.03;40.33;101043.59;5057241;28;45323;-42
2023/04/02 04:39:49;;;;;;;;;0.25;0.25;;;;;20.04;40.28;101052.34;5056854;28;45494;-44
2023/04/02 04:42:21;;;;;;;;;1.00;1.00;;;;;20.03;40.42;101054.13;5056687;28;45490;-41
2023/04/02 04:45:12;;;;;;;;;1.00;1.00;;;;;20.04;40.35;101050.56;5056853;28;46424;-41
2023/04/02 04:47:46;;;;;;;;;1.00;1.00;;;;;20.02;40.34;101048.94;5015011;28;45755;-44
2023/04/02 04:50:19;;;;;;;;;0.75;0.50;;;;;20.03;40.23;101062.00;5057084;28;45340;-44
2023/04/02 04:52:44;;;;;;;;;1.75;0.50;;;;;20.02;40.56;101057.66;5057610;28;45394;-40
2023/04/02 04:55:37;;;;;;;;;0.00;0.00;;;;;20.03;40.57;101067.28;5059504;28;45439;-45
2023/04/02 04:58:32;;;;;;;;;1.00;1.00;;;;;20.02;40.68;101073.47;5064318;28;45416;-42
2023/04/02 05:01:04;;;;;;;;;0.75;0.75;;;;;20.02;40.43;101067.34;5068524;28;45426;-43
2023/04/02 05:03:36;;;;;;;;;1.00;1.00;;;;;20.01;40.34;101078.81;5061254;28;45315;-41
2023/04/02 05:06:35;;;;;;;;;1.00;1.00;;;;;20.01;40.55;101084.91;5061983;28;47349;-44
2023/04/02 05:09:24;;;;;;;;;0.00;0.00;;;;;20.01;40.65;101091.97;5076068;28;45384;-40
2023/04/02 05:12:05;;;;;;;;;0.00;0.00;;;;;20.01;40.57;101095.44;5031125;28;45399;-41
2023/04/02 05:14:47;;;;;;;;;1.00;1.00;;;;;20.01;40.56;101097.22;5059947;28;45331;-44
2023/04/02 05:17:29;;;;;;;;;0.25;0.25;;;;;20.01;40.31;101100.69;5060266;28;45630;-44
2023/04/02 05:20:06;;;;;;;;;2.00;1.00;;;;;20.00;40.77;101108.66;5060220;28;45242;-41
2023/04/02 05:22:44;;;;;;;;;1.50;1.00;;;;;19.99;40.63;101105.19;5042170;28;45403;-41
2023/04/02 05:25:19;;;;;;;;;1.00;1.00;;;;;20.00;40.39;101114.81;5060838;28;45507;-43
2023/04/02 05:28:10;;;;;;;;;2.00;2.00;;;;;19.99;40.51;101121.00;5059624;28;46516;-42
2023/04/02 05:30:39;;;;;;;;;1.00;1.00;;;;;20.00;40.30;101119.19;5018201;28;45333;-41
2023/04/02 05:33:17;;;;;;;;;2.25;1.00;;;;;19.99;40.70;101107.84;5063245;28;45496;-43
2023/04/02 05:35:48;;;;;;;;;1.00;1.00;;;;;20.00;40.18;101127.09;5064120;28;45418;-41
2023/04/02 05:38:21;;;;;;;;;1.50;1.50;;;;;19.98;40.15;101132.44;5068030;28;45511;-42
2023/04/02 05:40:53;;;;;;;;;0.00;0.00;;;;;19.99;40.38;101130.63;5064250;28;45231;-44
2023/04/02 05:43:23;;;;;;;;;3.00;1.00;;;;;19.97;40.61;101138.63;5074083;28;45314;-39
2023/04/02 05:45:56;;;;;;;;;3.75;1.00;;;;;19.99;40.64;101143.78;5071476;28;45360;-41
2023/04/02 05:48:29;;;;;;;;;2.00;0.75;;;;;20.00;40.21;101145.50;5059198;28;46702;-41
2023/04/02 05:50:57;;;;;;;;;1.00;1.00;;;;;19.99;40.37;101149.06;5058998;28;45748;-41
2023/04/02 05:53:32;;;;;;;;;1.50;1.50;;;;;19.98;40.44;101145.59;5059287;28;45278;-43
2023/04/02 05:56:01;;;;;;;;;1.00;1.00;;;;;19.99;39.95;101157.81;5059191;28;45447;-41
2023/04/02 05:58:48;;;;;;;;;1.00;1.00;;;;;19.98;39.96;101150.84;5058812;28;45482;-41
2023/04/02 06:01:36;;;;;;;;;2.00;1.00;;;;;19.99;40.50;101159.59;5059461;28;45450;-41
2023/04/02 06:04:16;;;;;;;;;1.50;1.00;;;;;19.98;39.96;101166.63;5062970;28;45249;-42
2023/04/02 06:07:02;;;;;;;;;3.50;2.00;;;;;19.97;40.26;101157.03;5075312;28;45344;-44
2023/04/02 06:09:34;;;;;;;;;1.25;1.00;;;;;19.98;40.11;101160.50;5060758;28;46417;-43
2023/04/02 06:12:12;;;;;;;;;1.25;1.25;;;;;19.96;40.46;101168.47;5064279;28;45829;-40
2023/04/02 06:14:37;;;;;;;;;1.00;1.00;;;;;19.96;40.40;101168.47;5066727;28;45410;-40
2023/04/02 06:17:03;;;;;;;;;1.75;1.75;;;;;19.96;40.18;101176.38;5059319;28;45461;-42
2023/04/02 06:19:34;;;;;;;;;4.00;3.00;;;;;19.93;40.11;101166.84;5058467;28;46313;-41
2023/04/02 06:22:31;;;;;;;;;3.00;2.00;;;;;19.92;40.33;101174.81;5040484;28;46241;-41
2023/04/02 06:25:09;;;;;;;;;2.00;2.00;;;;;19.89;40.13;101170.53;5058646;28;45322;-42
2023/04/02 06:27:35;;;;;;;;;2.50;1.00;;;;;19.87;40.15;101174.19;5058757;28;45341;-41
2023/04/02 06:30:04;;;;;;;;;1.00;1.00;;;;;19.88;40.18;101191.66;5058185;28;47074;-40
2023/04/02 06:32:30;;;;;;;;;2.00;1.25;;;;;19.88;40.61;101192.50;5058257;28;45913;-41
2023/04/02 06:34:55;;;;;;;;;2.25;1.75;;;;;19.88;40.04;101191.66;5058252;28;45366;-42
2023/04/02 06:37:27;;;;;;;;;140.25;118.50;;;;;19.87;40.19;101192.59;5059169;28;45431;-40
2023/04/02 06:39:53;;;;;;;;;191.25;171.75;;;;;19.86;40.39;101193.53;5041338;28;47598;-42
2023/04/02 06:42:25;;;;;;;;;170.75;156.75;;;;;19.86;40.29;101193.53;5060162;28;45256;-42
2023/04/02 06:44:50;;;;;;;;;136.75;118.00;;;;;19.86;40.39;101201.41;5059889;28;45382;-42
2023/04/02 06:47:33;;;;;;;;;133.50;117.50;;;;;19.85;40.19;101197.03;5059355;28;45219;-41
2023/04/02 06:50:22;;;;;;;;;137.50;121.25;;;;;19.84;40.21;101197.97;5064769;28;45487;-40
2023/04/02 06:52:52;;;;;;;;;161.25;140.00;;;;;19.84;40.44;101200.59;5061809;28;45221;-42
2023/04/02 06:55:51;;;;;;;;;158.75;138.00;;;;;19.83;40.23;101202.38;5040499;28;45414;-41
2023/04/02 06:58:18;;;;;;;;;147.75;126.75;;;;;19.83;40.20;101209.41;5058279;28;45481;-41
2023/04/02 07:00:46;;;;;;;;;138.75;119.75;;;;;19.83;40.33;101209.41;5057642;28;46237;-44
2023/04/02 07:03:21;;;;;;;;;132.50;117.75;;;;;19.82;40.21;101221.72;5058947;28;45284;-43
2023/04/02 07:05:46;;;;;;;;;125.00;113.75;;;;;19.78;40.62;101222.78;5058161;28;45313;-42
2023/04/02 07:08:11;;;;;;;;;121.00;106.67;;;;;19.81;40.46;101227.03;5060799;28;61632;-42
2023/04/02 07:10:37;;;;;;;;;120.67;107.67;;;;;19.80;40.29;101230.56;5057269;28;45441;-40
2023/04/02 07:13:03;;;;;;;;;122.33;105.33;;;;;19.79;40.10;101240.25;5057338;28;45327;-41
2023/04/02 07:15:28;;;;;;;;;113.75;107.00;;;;;19.80;40.60;101243.72;5072416;28;45491;-42
2023/04/02 07:17:57;;;;;;;;;117.75;101.50;;;;;19.80;40.27;101249.00;5077099;28;45576;-41
2023/04/02 07:20:29;;;;;;;;;114.75;105.75;;;;;19.81;40.13;101256.81;5077082;28;46627;-40
2023/04/02 07:22:55;;;;;;;;;116.25;101.00;;;;;19.83;40.80;101259.38;5077817;28;45324;-41
2023/04/02 07:25:21;;;;;;;;;107.50;96.75;;;;;19.82;40.30;101266.44;5081601;28;45303;-41
2023/04/02 07:27:46;;;;;;;;;100.50;90.00;;;;;19.84;40.43;101268.97;5082316;28;45252;-41
2023/04/02 07:30:12;;;;;;;;;100.75;92.25;;;;;19.84;40.74;101268.97;5078139;28;46300;-43
2023/04/02 07:32:37;;;;;;;;;109.75;91.50;;;;;19.84;40.64;101274.25;5077159;28;45375;-42
2023/04/02 07:35:04;;;;;;;;;94.50;87.00;;;;;19.86;40.21;101281.16;5076734;28;45244;-43
2023/04/02 07:37:30;;;;;;;;;101.75;89.75;;;;;19.86;40.37;101282.94;5077451;28;45399;-42
2023/04/02 07:39:55;;;;;;;;;93.75;85.25;;;;;19.86;40.76;101288.22;5077029;28;46751;-42
2023/04/02 07:42:20;;;;;;;;;93.25;80.50;;;;;19.87;40.51;101292.56;5076972;28;45526;-40
2023/04/02 07:44:46;;;;;;;;;89.00;81.00;;;;;19.85;40.79;101292.56;5076211;28;60527;-41
2023/04/02 07:47:11;;;;;;;;;91.33;80.33;;;;;19.87;40.76;101295.19;5076905;28;45340;-42
2023/04/02 07:49:36;;;;;;;;;91.67;81.00;;;;;19.88;40.21;101302.16;5076639;28;49351;-42
2023/04/02 07:52:02;;;;;;;;;85.00;76.00;;;;;19.86;40.36;101302.19;5076351;28;64060;-42
2023/04/02 07:54:29;;;;;;;;;91.00;78.75;;;;;19.88;40.21;101310.06;5077059;28;45366;-43
2023/04/02 07:56:54;;;;;;;;;81.75;70.50;;;;;19.86;40.35;101315.34;5077198;28;45947;-42
2023/04/02 07:59:20;;;;;;;;;79.50;68.75;;;;;19.88;40.65;101308.25;5077201;28;45350;-42
2023/04/02 08:01:45;;;;;;;;;78.25;65.50;;;;;19.88;40.35;101303.00;5078228;28;45269;-42
2023/04/02 08:04:19;;;;;;;;;80.33;69.33;;;;;19.86;40.44;101311.88;5080768;28;45378;-42
2023/04/02 08:06:45;;;;;;;;;77.50;60.50;;;;;19.89;40.83;101327.53;5080364;28;45315;-41
2023/04/02 08:09:10;;;;;;;;;76.25;65.25;;;;;19.88;40.43;101324.03;5077549;28;46280;-45
2023/04/02 08:11:36;;;;;;;;;75.00;61.00;;;;;19.87;40.62;101316.22;5075794;28;62079;-40
2023/04/02 08:14:01;;;;;;;;;73.67;59.33;;;;;19.86;40.50;101327.66;5076565;28;45320;-39
2023/04/02 08:16:27;;;;;;;;;74.33;58.33;;;;;19.86;40.06;101331.13;5075420;28;45712;-42
2023/04/02 08:18:52;;;;;;;;;73.25;55.50;;;;;19.87;40.53;101347.78;5075257;28;46483;-40
2023/04/02 08:21:18;;;;;;;;;69.00;53.75;;;;;19.87;40.55;101346.00;5076189;28;45356;-39
2023/04/02 08:23:43;;;;;;;;;62.50;51.75;;;;;19.87;40.62;101347.78;5075005;28;45474;-40
2023/04/02 08:26:09;;;;;;;;;69.00;55.50;;;;;19.86;40.58;101338.19;5076878;28;45551;-39
2023/04/02 08:28:34;;;;;;;;;65.75;51.75;;;;;19.85;40.66;101345.19;5089893;28;46491;-41
2023/04/02 08:31:00;;;;;;;;;61.33;49.33;;;;;19.86;40.22;101340.81;5100783;28;44685;-39
2023/04/02 08:33:25;;;;;;;;;68.75;53.00;;;;;19.88;40.48;101354.75;5085013;28;45398;-41
2023/04/02 09:33:10;;;;;;;;;30.50;29.25;;;;;19.82;40.62;101439.16;5055449;28;45397;-47
2023/04/02 09:35:50;;;;;;;;;39.25;31.75;;;;;19.83;40.64;101440.88;5055722;28;45425;-49
2023/04/02 09:38:23;;;;;;;;;29.00;27.00;;;;;19.81;40.00;101443.59;5056955;28;45523;-47
2023/04/02 09:41:06;;;;;;;;;29.25;27.00;;;;;19.80;40.32;101451.50;5056980;28;45330;-47
2023/04/02 09:43:34;;;;;;;;;27.50;27.25;;;;;19.78;40.02;101452.47;5070766;28;45403;-48
2023/04/02 09:46:12;;;;;;;;;30.25;26.00;;;;;19.77;39.92;101455.13;5075925;28;45820;-51
2023/04/02 09:48:43;;;;;;;;;30.25;25.00;;;;;19.77;40.35;101458.66;5064481;28;45411;-49
2023/04/02 09:51:20;;;;;;;;;22.75;20.75;;;;;19.74;40.32;101464.03;5061527;28;45460;-50
2023/04/02 09:53:49;;;;;;;;;25.25;18.25;;;;;19.75;40.45;101464.88;5073163;28;47042;-49
2023/04/02 09:56:22;;;;;;;;;20.50;19.25;;;;;19.74;40.44;101463.16;5079742;28;45334;-47
2023/04/02 09:59:11;;;;;;;;;22.00;18.00;;;;;19.74;40.29;101473.66;5071005;28;44828;-52
2023/04/02 10:01:52;;;;;;;;;21.25;16.75;;;;;19.72;39.96;101471.13;5062053;28;45358;-48
2023/04/02 10:04:46;;;;;;;;;21.25;19.25;;;;;19.72;40.38;101476.38;5063679;28;46029;-49
2023/04/02 10:07:33;;;;;;;;;20.00;19.50;;;;;19.72;40.32;101470.28;5066179;28;45377;-53
2023/04/02 10:10:02;;;;;;;;;21.25;18.75;;;;;19.72;40.50;101481.63;5059689;28;45352;-50
2023/04/02 10:12:37;;;;;;;;;21.25;20.50;;;;;19.72;40.36;101476.38;5085866;28;44812;-47
2023/04/02 10:15:04;;;;;;;;;20.00;16.25;;;;;19.70;39.93;101488.72;5083191;28;45157;-50
2023/04/02 10:17:34;;;;;;;;;17.00;15.75;;;;;19.72;40.18;101491.31;5085337;28;45069;-49
2023/04/02 10:20:23;;;;;;;;;20.25;16.50;;;;;19.72;40.07;101502.69;5081739;28;44748;-52
2023/04/02 10:22:49;;;;;;;;;21.50;18.50;;;;;19.72;40.36;101496.56;5064361;28;45215;-50
2023/04/02 10:25:16;;;;;;;;;20.50;18.75;;;;;19.72;40.23;101502.69;5072045;28;46164;-53
2023/04/02 10:27:57;;;;;;;;;22.50;19.50;;;;;19.74;40.36;101505.22;5080224;28;45347;-50
2023/04/02 10:30:33;;;;;;;;;22.00;19.00;;;;;19.75;40.58;101499.94;5079516;28;45354;-48
2023/04/02 10:33:09;;;;;;;;;22.75;15.75;;;;;19.76;40.20;101508.66;5079716;28;45346;-49
2023/04/02 10:36:06;;;;;;;;;17.50;14.00;;;;;19.75;40.72;101515.72;5078644;28;45365;-50
2023/04/02 10:38:47;;;;;;;;;17.75;14.50;;;;;19.76;40.15;101522.69;5078927;28;46016;-50
2023/04/02 10:41:36;;;;;;;;;18.75;16.25;;;;;19.77;40.35;101529.66;5076691;28;45381;-47
2023/04/02 10:44:07;;;;;;;;;19.00;16.25;;;;;19.78;40.33;101528.75;5078635;28;45682;-45
2023/04/02 10:46:42;;;;;;;;;15.50;14.00;;;;;19.76;40.35;101520.06;5086787;28;46410;-46
2023/04/02 10:49:13;;;;;;;;;16.00;13.75;;;;;19.77;40.51;101527.03;5092117;28;45392;-49
2023/04/02 10:51:59;;;;;;;;;14.75;12.00;;;;;19.77;40.43;101527.03;5092176;28;45352;-46
2023/04/02 10:54:48;;;;;;;;;20.00;16.75;;;;;19.78;40.47;101531.38;5087001;28;45293;-45
2023/04/02 10:57:30;;;;;;;;;16.75;16.75;;;;;19.78;40.81;101528.75;5091148;28;45695;-45
2023/04/02 11:00:11;;;;;;;;;15.50;13.50;;;;;19.81;40.76;101534.78;5083312;28;45345;-49
2023/04/02 11:03:01;;;;;;;;;19.25;14.00;;;;;19.80;40.66;101540.94;5084499;28;45443;-51
2023/04/02 11:05:43;;;;;;;;;21.00;13.50;;;;;19.80;40.52;101536.56;5084891;28;45342;-51
2023/04/02 11:08:43;;;;;;;;;17.75;12.75;;;;;19.81;41.06;101542.66;5084868;28;46180;-51
2023/04/02 11:11:21;;;;;;;;;13.75;12.00;;;;;19.81;40.72;101553.19;5066745;28;45437;-50
2023/04/02 11:13:54;;;;;;;;;14.25;11.50;;;;;19.82;40.61;101550.50;5088827;28;45438;-52
2023/04/02 11:16:20;;;;;;;;;16.75;13.25;;;;;19.82;40.82;101557.53;5088178;28;45216;-50
2023/04/02 11:19:07;;;;;;;;;14.75;12.00;;;;;19.82;40.64;101555.78;5088401;28;46458;-50
2023/04/02 11:21:40;;;;;;;;;14.00;11.00;;;;;19.82;41.28;101566.28;5087578;28;45804;-49
2023/04/02 11:24:35;;;;;;;;;13.00;11.00;;;;;19.83;41.04;101568.00;5092461;28;45298;-50
2023/04/02 11:27:10;;;;;;;;;14.50;10.75;;;;;19.84;40.90;101563.59;5090567;28;45389;-49
2023/04/02 11:30:24;;;;;;;;;14.00;10.00;;;;;19.83;41.25;101565.38;5088524;28;45180;-50
2023/04/02 11:32:50;;;;;;;;;14.25;13.00;;;;;19.83;40.89;101572.41;5082640;28;45152;-49
2023/04/02 11:35:30;;;;;;;;;12.75;10.50;;;;;19.84;40.95;101568.84;5082297;28;45597;-47
2023/04/02 11:38:22;;;;;;;;;12.50;10.75;;;;;19.86;41.38;101575.78;5079110;28;45314;-48
2023/04/02 11:40:50;;;;;;;;;9.00;9.00;;;;;19.88;41.03;101567.84;5049079;28;45511;-47
2023/04/02 11:43:40;;;;;;;;;11.00;9.50;;;;;19.92;41.01;101574.69;5060153;28;45863;-50
2023/04/02 11:46:17;;;;;;;;;16.75;10.00;;;;;19.99;41.08;101583.19;5050363;28;45422;-51
2023/04/02 11:48:43;;;;;;;;;13.50;9.25;;;;;20.03;41.03;101580.34;5084622;28;45314;-49
2023/04/02 11:51:17;;;;;;;;;12.00;9.50;;;;;20.11;41.39;101581.84;5075251;28;46053;-51
2023/04/02 11:53:42;;;;;;;;;10.00;8.25;;;;;20.17;40.87;101582.44;5104960;28;45201;-50
2023/04/02 11:56:16;;;;;;;;;8.75;8.25;;;;;20.26;40.97;101586.44;5102431;28;45332;-50
2023/04/02 11:58:48;;;;;;;;;8.25;8.25;;;;;20.33;40.62;101603.69;5096356;28;44768;-50
2023/04/02 12:01:52;;;;;;;;;10.75;7.50;;;;;20.41;41.10;101602.50;5081145;28;45325;-46
2023/04/02 12:04:45;;;;;;;;;7.25;7.00;;;;;20.49;41.04;101598.63;5015638;28;45607;-46
2023/04/02 12:07:38;;;;;;;;;8.75;8.00;;;;;20.57;40.79;101606.19;5020786;28;45338;-50
2023/04/02 12:10:14;;;;;;;;;11.25;8.00;;;;;20.63;40.59;101600.66;5076588;28;45535;-48
2023/04/02 12:12:41;;;;;;;;;9.50;7.00;;;;;20.68;40.35;101598.66;5096489;28;46230;-47
2023/04/02 12:15:27;;;;;;;;;7.00;6.00;;;;;20.75;40.71;101609.81;5092749;28;45098;-47
2023/04/02 12:18:03;;;;;;;;;7.25;6.00;;;;;20.82;40.40;101621.81;5077977;28;45259;-48
2023/04/02 12:20:30;;;;;;;;;10.00;6.25;;;;;20.87;40.61;101620.75;5077191;28;45359;-50
2023/04/02 12:22:56;;;;;;;;;8.75;6.00;;;;;20.89;40.12;101627.66;5076945;28;46286;-49
2023/04/02 12:25:58;;;;;;;;;8.00;6.75;;;;;20.98;39.85;101623.75;5077286;28;45853;-51
2023/04/02 12:28:28;;;;;;;;;10.50;8.00;;;;;21.01;40.00;101629.75;5076914;28;45421;-50
2023/04/02 12:31:08;;;;;;;;;8.50;7.00;;;;;21.07;40.08;101633.03;5077125;28;45406;-48
2023/04/02 12:33:38;;;;;;;;;5.25;5.00;;;;;21.11;39.73;101639.91;5076773;28;45325;-48
2023/04/02 12:36:15;;;;;;;;;8.50;6.00;;;;;21.13;40.33;101636.25;5076275;28;45999;-50
2023/04/02 12:38:45;;;;;;;;;6.50;6.00;;;;;21.15;39.66;101638.81;5077076;28;45151;-46
2023/04/02 12:41:35;;;;;;;;;7.25;4.50;;;;;21.17;39.59;101636.97;5076983;28;45485;-53
2023/04/02 12:44:12;;;;;;;;;6.00;5.00;;;;;21.19;40.15;101640.41;5076761;28;46199;-50
2023/04/02 12:46:38;;;;;;;;;8.00;6.00;;;;;21.19;39.72;101637.75;5077634;28;45692;-50
2023/04/02 12:49:19;;;;;;;;;6.00;6.00;;;;;21.21;39.82;101643.84;5098978;28;45203;-49